createdAt,value
2022-09-21T00:01:25.007Z,55.39
2022-09-21T00:04:00.295Z,55.51
2022-09-21T00:06:28.961Z,55.39
2022-09-21T00:08:58.197Z,55.62
2022-09-21T00:11:28.088Z,55.44
2022-09-21T00:14:07.278Z,55.38
2022-09-21T00:16:35.239Z,55.16
2022-09-21T00:19:02.299Z,55.59
2022-09-21T00:21:29.052Z,55.40
2022-09-21T00:23:57.421Z,55.63
2022-09-21T00:26:26.542Z,55.18
2022-09-21T00:28:55.408Z,55.21
2022-09-21T00:31:22.742Z,55.29
2022-09-21T00:33:53.051Z,55.56
2022-09-21T00:36:22.444Z,55.65
2022-09-21T00:38:54.833Z,55.71
2022-09-21T00:41:22.394Z,55.32
2022-09-21T00:44:18.523Z,55.48
2022-09-21T00:46:48.205Z,55.53
2022-09-21T00:49:15.640Z,55.28
2022-09-21T00:51:42.931Z,55.78
2022-09-21T00:54:16.377Z,55.31
2022-09-21T00:56:44.697Z,55.28
2022-09-21T00:59:13.684Z,55.58
2022-09-21T01:01:40.342Z,55.37
2022-09-21T01:04:13.701Z,55.37
2022-09-21T01:06:41.347Z,55.52
2022-09-21T01:09:09.082Z,55.70
2022-09-21T01:11:47.176Z,55.36
2022-09-21T01:14:53.538Z,55.28
2022-09-21T01:17:41.781Z,55.32
2022-09-21T01:20:14.049Z,55.37
2022-09-21T01:23:16.990Z,55.67
2022-09-21T01:26:02.194Z,55.50
2022-09-21T01:28:38.217Z,55.77
2022-09-21T01:31:12.068Z,55.89
2022-09-21T01:33:51.456Z,55.45
2022-09-21T01:37:08.435Z,55.88
2022-09-21T01:39:37.829Z,55.49
2022-09-21T01:42:06.946Z,55.85
2022-09-21T01:44:38.346Z,55.64
2022-09-21T01:47:09.856Z,55.83
2022-09-21T01:49:41.588Z,55.66
2022-09-21T01:52:31.489Z,55.87
2022-09-21T01:55:33.319Z,56.12
2022-09-21T01:58:12.221Z,55.86
2022-09-21T02:00:41.023Z,55.63
2022-09-21T02:03:13.819Z,56.12
2022-09-21T02:05:42.547Z,55.68
2022-09-21T02:08:10.142Z,56.07
2022-09-21T02:10:42.816Z,55.77
2022-09-21T02:13:10.001Z,56.01
2022-09-21T02:15:37.369Z,55.96
2022-09-21T02:18:29.710Z,55.89
2022-09-21T02:21:03.806Z,55.73
2022-09-21T02:23:34.238Z,56.02
2022-09-21T02:26:13.289Z,55.90
2022-09-21T02:28:42.886Z,55.70
2022-09-21T02:31:33.330Z,55.96
2022-09-21T02:34:14.069Z,55.82
2022-09-21T02:36:53.362Z,56.22
2022-09-21T02:39:29.724Z,56.01
2022-09-21T02:42:20.262Z,55.98
2022-09-21T02:45:19.041Z,56.12
2022-09-21T02:47:56.769Z,56.04
2022-09-21T02:50:32.967Z,55.96
2022-09-21T02:53:02.813Z,56.05
2022-09-21T02:55:31.194Z,56.26
2022-09-21T02:57:59.070Z,56.24
2022-09-21T03:00:25.619Z,56.13
2022-09-21T03:02:52.151Z,56.31
2022-09-21T03:05:19.671Z,56.21
2022-09-21T03:07:46.207Z,56.15
2022-09-21T03:10:12.715Z,56.21
2022-09-21T03:12:39.321Z,56.28
2022-09-21T03:15:06.345Z,56.44
2022-09-21T03:17:32.864Z,56.40
2022-09-21T03:19:59.344Z,56.43
2022-09-21T03:22:25.869Z,56.05
2022-09-21T03:24:57.549Z,56.18
2022-09-21T03:27:24.531Z,55.75
2022-09-21T03:29:51.060Z,56.19
2022-09-21T03:32:17.766Z,56.04
2022-09-21T03:34:45.649Z,56.02
2022-09-21T03:37:12.174Z,55.66
2022-09-21T03:39:38.710Z,55.94
2022-09-21T03:42:05.344Z,55.88
2022-09-21T03:44:31.973Z,55.91
2022-09-21T03:46:58.534Z,55.72
2022-09-21T03:49:25.362Z,55.89
2022-09-21T03:51:51.884Z,55.59
2022-09-21T03:54:19.939Z,55.72
2022-09-21T03:56:46.525Z,55.55
2022-09-21T03:59:14.394Z,55.72
2022-09-21T04:01:42.208Z,55.56
2022-09-21T04:04:12.994Z,55.77
2022-09-21T04:06:39.525Z,55.68
2022-09-21T04:09:06.282Z,55.80
2022-09-21T04:11:33.271Z,55.48
2022-09-21T04:14:01.918Z,55.94
2022-09-21T04:16:28.451Z,55.89
2022-09-21T04:18:54.978Z,55.59
2022-09-21T04:21:24.578Z,55.94
2022-09-21T04:23:52.649Z,55.64
2022-09-21T04:26:26.275Z,55.71
2022-09-21T04:28:54.089Z,55.68
2022-09-21T04:31:21.622Z,55.57
2022-09-21T04:33:50.448Z,55.68
2022-09-21T04:36:22.118Z,55.57
2022-09-21T04:38:49.017Z,55.80
2022-09-21T04:41:16.464Z,55.80
2022-09-21T04:43:47.487Z,55.97
2022-09-21T04:46:17.149Z,55.91
2022-09-21T04:48:43.701Z,55.94
2022-09-21T04:51:11.231Z,56.09
2022-09-21T04:53:43.027Z,56.10
2022-09-21T04:56:12.953Z,56.31
2022-09-21T04:58:39.624Z,56.18
2022-09-21T05:01:07.715Z,56.10
2022-09-21T05:03:37.674Z,56.19
2022-09-21T05:06:04.675Z,56.24
2022-09-21T05:08:49.935Z,56.18
2022-09-21T05:11:22.766Z,55.76
2022-09-21T05:13:50.942Z,55.90
2022-09-21T05:16:18.759Z,55.67
2022-09-21T05:18:46.100Z,55.70
2022-09-21T05:21:14.321Z,55.72
2022-09-21T05:23:42.238Z,55.51
2022-09-21T05:26:08.813Z,55.50
2022-09-21T05:28:39.838Z,55.50
2022-09-21T05:31:31.631Z,55.57
2022-09-21T05:34:12.050Z,55.68
2022-09-21T05:36:41.554Z,55.89
2022-09-21T05:39:08.718Z,55.65
2022-09-21T05:41:35.717Z,55.77
2022-09-21T05:44:05.791Z,56.17
2022-09-21T05:46:35.064Z,55.68
2022-09-21T05:49:27.238Z,55.92
2022-09-21T05:52:11.824Z,55.94
2022-09-21T05:54:41.789Z,56.27
2022-09-21T05:57:17.459Z,56.29
2022-09-21T06:00:12.089Z,56.39
2022-09-21T06:03:07.523Z,56.16
2022-09-21T06:05:34.710Z,56.37
2022-09-21T06:08:01.372Z,56.11
2022-09-21T06:10:33.633Z,56.44
2022-09-21T06:13:00.553Z,56.41
2022-09-21T06:15:27.421Z,56.31
2022-09-21T06:17:54.010Z,56.34
2022-09-21T06:20:20.593Z,56.22
2022-09-21T06:22:47.106Z,56.39
2022-09-21T06:25:15.285Z,56.25
2022-09-21T06:27:41.729Z,56.48
2022-09-21T06:30:08.518Z,56.65
2022-09-21T06:32:35.058Z,56.61
2022-09-21T06:35:01.667Z,56.88
2022-09-21T06:37:28.154Z,56.72
2022-09-21T06:39:54.670Z,56.65
2022-09-21T06:42:21.193Z,57.11
2022-09-21T06:44:49.477Z,57.10
2022-09-21T06:47:15.958Z,57.20
2022-09-21T06:49:42.803Z,57.27
2022-09-21T06:52:09.443Z,57.69
2022-09-21T06:54:36.806Z,57.92
2022-09-21T06:57:03.502Z,57.69
2022-09-21T06:59:29.986Z,57.79
2022-09-21T07:01:58.307Z,58.00
2022-09-21T07:04:25.382Z,58.47
2022-09-21T07:06:51.996Z,58.47
2022-09-21T07:12:07.050Z,58.58
2022-09-21T07:14:34.567Z,58.92
2022-09-21T07:17:01.055Z,58.75
2022-09-21T07:19:27.562Z,58.67
2022-09-21T07:21:55.029Z,58.97
2022-09-21T07:24:25.720Z,58.50
2022-09-21T07:26:52.929Z,58.73
2022-09-21T07:29:19.390Z,58.43
2022-09-21T07:31:46.036Z,58.32
2022-09-21T07:34:13.760Z,58.24
2022-09-21T07:36:40.521Z,57.70
2022-09-21T07:39:09.482Z,57.99
2022-09-21T07:41:36.577Z,57.71
2022-09-21T07:44:05.106Z,57.45
2022-09-21T07:46:31.781Z,57.14
2022-09-21T07:48:58.331Z,57.11
2022-09-21T07:51:25.244Z,56.85
2022-09-21T07:53:56.814Z,56.38
2022-09-21T07:56:24.305Z,56.54
2022-09-21T07:59:05.926Z,55.97
2022-09-21T08:01:38.365Z,55.91
2022-09-21T08:04:09.734Z,55.65
2022-09-21T08:06:39.809Z,55.80
2022-09-21T08:09:06.800Z,55.70
2022-09-21T08:11:33.690Z,55.53
2022-09-21T08:14:03.790Z,55.16
2022-09-21T08:16:31.713Z,54.94
2022-09-21T08:18:58.307Z,54.43
2022-09-21T08:21:24.817Z,54.31
2022-09-21T08:23:52.434Z,53.85
2022-09-21T08:26:19.950Z,53.84
2022-09-21T08:28:51.064Z,53.13
2022-09-21T08:31:20.137Z,53.12
2022-09-21T08:33:49.792Z,53.00
2022-09-21T08:36:16.954Z,52.79
2022-09-21T08:38:43.899Z,52.59
2022-09-21T08:41:16.332Z,52.29
2022-09-21T08:44:28.054Z,51.67
2022-09-21T08:47:19.126Z,51.42
2022-09-21T08:49:59.379Z,51.26
2022-09-21T08:52:26.587Z,51.18
2022-09-21T08:55:07.286Z,50.65
2022-09-21T08:57:34.421Z,50.51
2022-09-21T09:00:02.246Z,50.18
2022-09-21T09:02:37.808Z,49.91
2022-09-21T09:05:25.846Z,49.47
2022-09-21T09:08:05.859Z,49.04
2022-09-21T09:11:16.963Z,48.37
2022-09-21T09:14:21.465Z,47.92
2022-09-21T09:16:57.320Z,48.13
2022-09-21T09:19:38.433Z,47.82
2022-09-21T09:22:12.324Z,47.33
2022-09-21T09:25:06.018Z,46.92
2022-09-21T09:27:40.337Z,47.08
2022-09-21T09:30:12.541Z,46.90
2022-09-21T09:33:00.396Z,46.38
2022-09-21T09:35:36.353Z,46.62
2022-09-21T09:38:15.860Z,46.49
2022-09-21T09:40:54.885Z,46.48
2022-09-21T09:43:56.207Z,46.15
2022-09-21T09:46:25.843Z,45.97
2022-09-21T09:49:09.252Z,45.53
2022-09-21T09:51:37.538Z,45.42
2022-09-21T09:54:14.957Z,44.96
2022-09-21T09:56:42.261Z,45.13
2022-09-21T09:59:23.123Z,45.12
2022-09-21T10:02:00.918Z,44.90
2022-09-21T10:04:30.615Z,44.81
2022-09-21T10:06:57.183Z,44.36
2022-09-21T10:09:34.026Z,44.44
2022-09-21T10:12:14.904Z,44.56
2022-09-21T10:14:53.555Z,44.33
2022-09-21T10:17:20.430Z,44.40
2022-09-21T10:19:47.154Z,44.23
2022-09-21T10:22:20.327Z,44.24
2022-09-21T10:24:54.254Z,44.43
2022-09-21T10:27:34.429Z,44.63
2022-09-21T10:30:01.410Z,44.34
2022-09-21T10:32:29.620Z,43.96
2022-09-21T10:35:08.459Z,43.86
2022-09-21T10:37:41.340Z,43.98
2022-09-21T10:40:19.823Z,43.33
2022-09-21T10:42:49.029Z,42.98
2022-09-21T10:45:17.573Z,43.10
2022-09-21T10:47:55.980Z,42.67
2022-09-21T10:50:30.018Z,42.07
2022-09-21T10:53:02.216Z,41.92
2022-09-21T10:55:32.022Z,41.74
2022-09-21T10:57:59.638Z,41.65
2022-09-21T11:00:35.315Z,41.89
2022-09-21T11:03:26.230Z,41.53
2022-09-21T11:05:54.021Z,41.26
2022-09-21T11:08:32.894Z,40.90
2022-09-21T11:11:24.470Z,41.09
2022-09-21T11:14:01.048Z,40.97
2022-09-21T11:16:44.625Z,40.79
2022-09-21T11:19:21.277Z,41.05
2022-09-21T11:22:03.119Z,41.11
2022-09-21T11:24:52.550Z,40.75
2022-09-21T11:27:36.249Z,40.31
2022-09-21T11:30:14.099Z,40.46
2022-09-21T11:33:02.247Z,40.20
2022-09-21T11:35:52.926Z,40.11
2022-09-21T11:38:34.331Z,40.21
2022-09-21T11:41:27.300Z,39.89
2022-09-21T11:44:16.382Z,40.30
2022-09-21T11:47:07.269Z,39.87
2022-09-21T11:49:42.650Z,39.78
2022-09-21T11:52:21.384Z,39.62
2022-09-21T11:55:00.759Z,39.08
2022-09-21T11:57:42.638Z,39.11
2022-09-21T12:00:17.175Z,39.10
2022-09-21T12:02:53.067Z,38.76
2022-09-21T12:05:28.688Z,38.66
2022-09-21T12:08:10.376Z,38.75
2022-09-21T12:10:59.932Z,38.82
2022-09-21T12:13:56.031Z,38.94
2022-09-21T12:17:04.667Z,38.48
2022-09-21T12:19:55.911Z,38.40
2022-09-21T12:22:28.340Z,38.13
2022-09-21T12:25:02.607Z,37.56
2022-09-21T12:27:40.378Z,37.37
2022-09-21T12:30:19.422Z,37.27
2022-09-21T12:32:53.394Z,37.38
2022-09-21T12:35:26.301Z,37.45
2022-09-21T12:38:16.470Z,37.39
2022-09-21T12:41:20.264Z,37.29
2022-09-21T12:44:05.096Z,37.27
2022-09-21T12:46:38.837Z,37.25
2022-09-21T12:49:21.244Z,37.13
2022-09-21T12:51:56.959Z,37.05
2022-09-21T12:54:45.448Z,37.02
2022-09-21T13:00:22.276Z,36.75
2022-09-21T13:03:01.359Z,36.62
2022-09-21T13:05:27.836Z,36.41
2022-09-21T13:08:12.291Z,36.00
2022-09-21T13:11:05.647Z,35.68
2022-09-21T13:13:36.066Z,35.70
2022-09-21T13:16:05.495Z,35.71
2022-09-21T13:18:36.823Z,35.53
2022-09-21T13:21:18.444Z,35.36
2022-09-21T13:24:01.345Z,35.08
2022-09-21T13:26:38.952Z,34.96
2022-09-21T13:29:34.260Z,34.79
2022-09-21T13:32:23.798Z,35.00
2022-09-21T13:35:33.246Z,34.85
2022-09-21T13:38:34.424Z,34.27
2022-09-21T13:41:31.528Z,34.12
2022-09-21T13:44:41.034Z,34.22
2022-09-21T13:47:09.004Z,34.22
2022-09-21T13:49:43.301Z,33.95
2022-09-21T13:52:15.749Z,33.78
2022-09-21T13:54:52.210Z,33.89
2022-09-21T13:57:32.161Z,34.05
2022-09-21T14:00:19.870Z,33.99
2022-09-21T14:03:00.495Z,33.99
2022-09-21T14:05:43.221Z,33.82
2022-09-21T14:08:15.672Z,33.91
2022-09-21T14:10:57.303Z,33.66
2022-09-21T14:13:37.662Z,33.64
2022-09-21T14:16:36.414Z,33.71
2022-09-21T14:19:29.575Z,34.27
2022-09-21T14:22:08.395Z,33.79
2022-09-21T14:24:51.274Z,33.71
2022-09-21T14:27:36.790Z,33.67
2022-09-21T14:30:22.249Z,33.42
2022-09-21T14:33:00.838Z,33.19
2022-09-21T14:35:34.056Z,33.43
2022-09-21T14:38:07.910Z,33.11
2022-09-21T14:40:42.166Z,33.17
2022-09-21T14:43:14.868Z,33.22
2022-09-21T14:46:12.149Z,33.35
2022-09-21T14:48:52.075Z,33.16
2022-09-21T14:51:18.544Z,33.22
2022-09-21T14:54:04.472Z,33.25
2022-09-21T14:56:38.965Z,33.20
2022-09-21T14:59:38.366Z,33.08
2022-09-21T15:02:18.033Z,33.38
2022-09-21T15:05:12.681Z,33.27
2022-09-21T15:08:03.438Z,33.67
2022-09-21T15:10:55.310Z,33.81
2022-09-21T15:14:06.329Z,33.53
2022-09-21T15:16:42.152Z,33.46
2022-09-21T15:19:17.729Z,33.82
2022-09-21T15:21:49.986Z,33.81
2022-09-21T15:24:20.647Z,33.75
2022-09-21T15:26:49.893Z,33.93
2022-09-21T15:29:27.816Z,34.07
2022-09-21T15:31:54.806Z,33.96
2022-09-21T15:34:23.492Z,34.15
2022-09-21T15:36:52.073Z,33.88
2022-09-21T15:39:28.673Z,34.22
2022-09-21T15:42:10.513Z,33.87
2022-09-21T15:44:39.479Z,34.09
2022-09-21T15:47:12.468Z,33.84
2022-09-21T15:49:39.589Z,34.07
2022-09-21T15:52:13.566Z,34.13
2022-09-21T15:54:53.308Z,34.41
2022-09-21T15:57:40.307Z,34.52
2022-09-21T16:00:15.973Z,34.91
2022-09-21T16:02:51.811Z,35.17
2022-09-21T16:05:22.427Z,34.84
2022-09-21T16:07:49.057Z,34.96
2022-09-21T16:10:30.494Z,35.50
2022-09-21T16:13:22.967Z,35.13
2022-09-21T16:16:08.181Z,35.03
2022-09-21T16:18:49.250Z,35.12
2022-09-21T16:21:15.829Z,35.63
2022-09-21T16:23:45.336Z,35.68
2022-09-21T16:26:23.478Z,35.46
2022-09-21T16:28:57.088Z,35.73
2022-09-21T16:31:33.064Z,35.72
2022-09-21T16:34:36.649Z,36.07
2022-09-21T16:37:28.045Z,36.54
2022-09-21T16:39:56.840Z,36.52
2022-09-21T16:42:31.177Z,36.72
2022-09-21T16:44:59.697Z,36.69
2022-09-21T16:47:27.685Z,36.94
2022-09-21T16:50:01.320Z,36.99
2022-09-21T16:52:29.583Z,37.19
2022-09-21T16:55:00.173Z,36.94
2022-09-21T16:57:26.727Z,37.02
2022-09-21T16:59:53.673Z,37.37
2022-09-21T17:02:20.214Z,37.24
2022-09-21T17:04:47.913Z,37.58
2022-09-21T17:07:15.200Z,37.31
2022-09-21T17:09:46.207Z,37.80
2022-09-21T17:12:15.219Z,38.16
2022-09-21T17:14:46.766Z,38.56
2022-09-21T17:17:23.951Z,38.58
2022-09-21T17:19:52.605Z,38.83
2022-09-21T17:22:20.140Z,39.01
2022-09-21T17:24:53.903Z,39.01
2022-09-21T17:27:23.789Z,39.23
2022-09-21T17:29:50.797Z,39.18
2022-09-21T17:32:20.496Z,39.50
2022-09-21T17:34:56.200Z,39.51
2022-09-21T17:37:25.036Z,40.07
2022-09-21T17:39:51.564Z,39.96
2022-09-21T17:42:21.090Z,40.29
2022-09-21T17:45:03.203Z,40.37
2022-09-21T17:47:31.082Z,40.20
2022-09-21T17:50:06.430Z,40.29
2022-09-21T17:52:51.405Z,39.97
2022-09-21T17:55:18.277Z,40.42
2022-09-21T17:57:56.603Z,40.58
2022-09-21T18:00:25.178Z,40.63
2022-09-21T18:02:53.790Z,40.93
2022-09-21T18:05:27.043Z,40.98
2022-09-21T18:07:53.865Z,41.15
2022-09-21T18:10:22.665Z,41.09
2022-09-21T18:13:10.510Z,41.50
2022-09-21T18:15:53.690Z,41.82
2022-09-21T18:18:31.747Z,41.51
2022-09-21T18:21:04.414Z,41.95
2022-09-21T18:24:03.254Z,41.91
2022-09-21T18:26:30.114Z,42.10
2022-09-21T18:28:59.494Z,42.13
2022-09-21T18:31:48.970Z,42.64
2022-09-21T18:34:58.359Z,42.83
2022-09-21T18:37:31.290Z,42.52
2022-09-21T18:40:21.857Z,43.16
2022-09-21T18:42:55.670Z,42.82
2022-09-21T18:45:28.303Z,43.37
2022-09-21T18:48:06.682Z,43.65
2022-09-21T18:50:58.199Z,43.97
2022-09-21T18:53:53.666Z,43.69
2022-09-21T18:56:20.451Z,43.72
2022-09-21T18:58:47.837Z,43.97
2022-09-21T19:01:16.909Z,43.96
2022-09-21T19:03:49.711Z,44.40
2022-09-21T19:06:27.299Z,44.46
2022-09-21T19:08:56.685Z,44.36
2022-09-21T19:11:32.387Z,44.40
2022-09-21T19:14:17.500Z,44.71
2022-09-21T19:16:53.198Z,44.80
2022-09-21T19:19:45.739Z,44.74
2022-09-21T19:22:18.714Z,45.06
2022-09-21T19:24:58.322Z,45.10
2022-09-21T19:27:27.884Z,45.31
2022-09-21T19:30:04.941Z,45.14
2022-09-21T19:32:36.054Z,45.67
2022-09-21T19:35:27.690Z,45.54
2022-09-21T19:37:56.527Z,45.79
2022-09-21T19:40:26.008Z,46.08
2022-09-21T19:43:16.300Z,45.98
2022-09-21T19:46:10.353Z,46.13
2022-09-21T19:48:48.550Z,46.26
2022-09-21T19:51:39.450Z,46.48
2022-09-21T19:54:33.427Z,46.52
2022-09-21T19:57:19.338Z,46.50
2022-09-21T19:59:46.918Z,46.13
2022-09-21T20:02:28.449Z,46.21
2022-09-21T20:05:08.716Z,46.45
2022-09-21T20:07:54.473Z,46.98
2022-09-21T20:10:28.753Z,46.67
2022-09-21T20:13:04.841Z,47.16
2022-09-21T20:15:39.969Z,46.86
2022-09-21T20:18:29.597Z,47.16
2022-09-21T20:20:57.522Z,47.09
2022-09-21T20:23:24.286Z,47.31
2022-09-21T20:26:00.570Z,46.91
2022-09-21T20:28:27.354Z,46.85
2022-09-21T20:30:54.680Z,46.90
2022-09-21T20:33:24.040Z,47.08
2022-09-21T20:35:55.684Z,47.26
2022-09-21T20:38:23.153Z,47.14
2022-09-21T20:40:49.764Z,47.20
2022-09-21T20:43:16.273Z,47.22
2022-09-21T20:45:47.665Z,47.50
2022-09-21T20:48:14.351Z,47.47
2022-09-21T20:50:46.504Z,47.56
2022-09-21T20:53:13.182Z,47.77
2022-09-21T20:55:41.238Z,47.46
2022-09-21T20:58:11.474Z,47.46
2022-09-21T21:00:38.108Z,47.74
2022-09-21T21:03:05.216Z,47.87
2022-09-21T21:05:33.436Z,47.88
2022-09-21T21:08:00.241Z,48.00
2022-09-21T21:10:26.797Z,47.78
2022-09-21T21:12:53.502Z,47.65
2022-09-21T21:15:21.228Z,47.85
2022-09-21T21:17:48.684Z,48.01
2022-09-21T21:20:18.490Z,47.97
2022-09-21T21:22:48.136Z,48.08
2022-09-21T21:25:16.363Z,48.18
2022-09-21T21:27:42.928Z,48.11
2022-09-21T21:30:10.461Z,48.05
2022-09-21T21:32:37.277Z,48.28
2022-09-21T21:35:04.846Z,48.50
2022-09-21T21:37:31.355Z,48.50
2022-09-21T21:39:58.456Z,48.25
2022-09-21T21:42:25.042Z,48.14
2022-09-21T21:44:56.107Z,48.47
2022-09-21T21:50:10.600Z,48.56
2022-09-21T21:52:37.771Z,48.59
2022-09-21T21:55:10.021Z,48.39
2022-09-21T21:57:36.522Z,48.39
2022-09-21T22:00:04.710Z,48.73
2022-09-21T22:02:31.584Z,48.64
2022-09-21T22:04:59.141Z,48.77
2022-09-21T22:07:25.598Z,49.11
2022-09-21T22:09:52.075Z,48.72
2022-09-21T22:12:18.558Z,48.83
2022-09-21T22:14:46.476Z,48.67
2022-09-21T22:17:13.610Z,48.88
2022-09-21T22:19:40.307Z,48.75
2022-09-21T22:22:06.777Z,48.83
2022-09-21T22:24:34.853Z,48.77
2022-09-21T22:27:01.413Z,49.14
2022-09-21T22:29:27.884Z,49.03
2022-09-21T22:31:55.500Z,49.21
2022-09-21T22:34:24.890Z,49.25
2022-09-21T22:36:51.438Z,49.15
2022-09-21T22:39:18.217Z,49.16
2022-09-21T22:41:44.807Z,49.35
2022-09-21T22:44:15.905Z,49.47
2022-09-21T22:46:42.444Z,49.60
2022-09-21T22:49:08.985Z,49.42
2022-09-21T22:51:36.083Z,49.70
2022-09-21T22:54:02.918Z,49.43
2022-09-21T22:56:31.555Z,49.87
2022-09-21T22:59:00.998Z,49.88
2022-09-21T23:01:30.262Z,49.83
2022-09-21T23:04:06.975Z,49.67
2022-09-21T23:06:36.008Z,50.00
2022-09-21T23:09:06.487Z,49.92
2022-09-21T23:11:38.678Z,49.84
2022-09-21T23:14:11.250Z,49.91
2022-09-21T23:16:38.073Z,49.88
2022-09-21T23:19:04.777Z,49.84
2022-09-21T23:21:31.510Z,50.13
2022-09-21T23:24:01.837Z,50.17
2022-09-21T23:26:30.748Z,50.59
2022-09-21T23:29:03.508Z,50.54
2022-09-21T23:31:31.761Z,50.55
2022-09-21T23:34:04.603Z,50.45
2022-09-21T23:36:32.555Z,50.60
2022-09-21T23:38:59.840Z,50.74
2022-09-21T23:41:29.794Z,50.97
2022-09-21T23:43:57.860Z,50.79
2022-09-21T23:46:28.211Z,51.05
2022-09-21T23:48:54.877Z,50.69
2022-09-21T23:51:22.041Z,50.67
2022-09-21T23:53:52.017Z,50.84
2022-09-21T23:56:21.493Z,50.66
2022-09-21T23:58:49.339Z,50.85
